createdAt,value
2023-03-20T00:00:36.012Z,20.42
2023-03-20T00:03:21.974Z,19.02
2023-03-20T00:06:37.122Z,21.42
2023-03-20T00:09:23.309Z,19.42
2023-03-20T00:12:15.880Z,19.77
2023-03-20T00:15:04.444Z,19.45
2023-03-20T00:17:50.356Z,19.80
2023-03-20T00:20:36.152Z,21.75
2023-03-20T00:23:22.826Z,21.48
2023-03-20T00:26:15.787Z,19.65
2023-03-20T00:29:04.159Z,19.58
2023-03-20T00:31:50.005Z,18.50
2023-03-20T00:34:36.489Z,18.67
2023-03-20T00:37:22.358Z,15.95
2023-03-20T00:40:09.586Z,15.80
2023-03-20T00:42:59.789Z,16.20
2023-03-20T00:45:45.823Z,15.65
2023-03-20T00:48:32.534Z,16.83
2023-03-20T00:51:19.359Z,17.25
2023-03-20T00:54:16.842Z,17.85
2023-03-20T00:57:35.585Z,18.00
2023-03-20T01:00:30.744Z,16.80
2023-03-20T01:03:25.765Z,17.40
2023-03-20T01:06:12.971Z,18.27
2023-03-20T01:08:58.728Z,20.70
2023-03-20T01:11:45.127Z,20.60
2023-03-20T01:14:31.260Z,21.83
2023-03-20T01:17:19.957Z,20.63
2023-03-20T01:20:14.329Z,19.90
2023-03-20T01:23:00.417Z,17.83
2023-03-20T01:25:46.257Z,17.40
2023-03-20T01:28:32.472Z,17.90
2023-03-20T01:31:19.066Z,18.17
2023-03-20T01:34:06.362Z,17.33
2023-03-20T01:36:54.384Z,15.60
2023-03-20T01:39:40.390Z,15.63
2023-03-20T01:42:26.196Z,14.25
2023-03-20T01:45:21.510Z,14.40
2023-03-20T01:48:17.700Z,14.38
2023-03-20T01:51:03.506Z,13.50
2023-03-20T01:53:53.531Z,13.27
2023-03-20T01:56:43.597Z,14.02
2023-03-20T01:59:30.268Z,14.25
2023-03-20T02:02:20.541Z,15.82
2023-03-20T02:05:09.624Z,14.77
2023-03-20T02:08:26.159Z,13.88
2023-03-20T02:11:13.163Z,14.93
2023-03-20T02:14:00.295Z,16.25
2023-03-20T02:16:51.259Z,15.30
2023-03-20T02:20:17.930Z,15.93
2023-03-20T02:26:37.057Z,15.10
2023-03-20T02:29:42.497Z,18.48
2023-03-20T02:32:41.295Z,14.73
2023-03-20T02:35:52.652Z,13.52
2023-03-20T02:39:00.349Z,12.75
2023-03-20T02:41:46.447Z,13.15
2023-03-20T02:44:51.468Z,11.85
2023-03-20T02:47:44.693Z,12.13
2023-03-20T02:50:38.805Z,11.93
2023-03-20T02:53:41.676Z,12.90
2023-03-20T02:56:46.252Z,13.57
2023-03-20T02:59:37.774Z,13.98
2023-03-20T03:02:37.840Z,11.70
2023-03-20T03:05:37.118Z,10.50
2023-03-20T03:08:26.307Z,10.73
2023-03-20T03:11:12.892Z,11.60
2023-03-20T03:13:59.207Z,10.63
2023-03-20T03:16:46.695Z,12.18
2023-03-20T03:19:34.125Z,11.20
2023-03-20T03:22:21.260Z,11.70
2023-03-20T03:25:07.359Z,12.63
2023-03-20T03:28:18.936Z,11.63
2023-03-20T03:31:13.740Z,12.77
2023-03-20T03:34:00.350Z,11.60
2023-03-20T03:37:00.980Z,10.95
2023-03-20T03:39:54.130Z,10.10
2023-03-20T03:43:04.590Z,10.40
2023-03-20T03:45:55.113Z,10.07
2023-03-20T03:48:45.509Z,11.57
2023-03-20T03:51:34.583Z,11.05
2023-03-20T03:54:42.202Z,11.60
2023-03-20T03:57:58.178Z,11.05
2023-03-20T04:00:46.341Z,11.63
2023-03-20T04:03:35.907Z,11.30
2023-03-20T04:06:22.105Z,11.68
2023-03-20T04:09:09.675Z,11.70
2023-03-20T04:11:55.398Z,13.23
2023-03-20T04:14:41.245Z,11.95
2023-03-20T04:17:27.276Z,11.65
2023-03-20T04:20:13.713Z,11.45
2023-03-20T04:22:59.674Z,9.90
2023-03-20T04:25:45.631Z,10.95
2023-03-20T04:28:34.376Z,11.23
2023-03-20T04:31:43.671Z,11.07
2023-03-20T04:34:37.940Z,10.85
2023-03-20T04:37:33.160Z,12.38
2023-03-20T04:40:27.256Z,11.57
2023-03-20T04:43:14.629Z,10.73
2023-03-20T04:46:00.860Z,12.35
2023-03-20T04:48:46.934Z,12.50
2023-03-20T04:51:33.753Z,12.77
2023-03-20T04:54:19.876Z,13.55
2023-03-20T04:57:06.268Z,11.50
2023-03-20T04:59:53.112Z,11.75
2023-03-20T05:02:38.989Z,11.20
2023-03-20T05:05:26.284Z,10.52
2023-03-20T05:08:13.412Z,10.95
2023-03-20T05:10:59.813Z,12.80
2023-03-20T05:14:24.304Z,11.18
2023-03-20T05:17:41.274Z,13.43
2023-03-20T05:20:50.900Z,13.23
2023-03-20T05:24:09.194Z,13.65
2023-03-20T05:27:15.035Z,14.38
2023-03-20T05:30:19.834Z,13.95
2023-03-20T05:33:05.701Z,13.63
2023-03-20T05:36:12.208Z,11.30
2023-03-20T05:39:27.641Z,11.80
2023-03-20T05:42:27.741Z,11.40
2023-03-20T05:45:37.164Z,12.27
2023-03-20T05:48:47.611Z,13.25
2023-03-20T05:52:06.545Z,12.73
2023-03-20T05:55:20.798Z,12.65
2023-03-20T05:58:26.359Z,13.68
2023-03-20T06:01:28.076Z,13.00
2023-03-20T06:04:26.062Z,14.00
2023-03-20T06:07:30.361Z,13.75
2023-03-20T06:10:21.711Z,12.77
2023-03-20T06:13:09.444Z,13.00
2023-03-20T06:15:56.382Z,14.30
2023-03-20T06:18:42.760Z,14.77
2023-03-20T06:21:28.664Z,14.90
2023-03-20T06:24:14.619Z,14.30
2023-03-20T06:27:00.794Z,21.65
2023-03-20T06:29:47.650Z,17.20
2023-03-20T06:32:37.384Z,15.70
2023-03-20T06:35:30.740Z,15.98
2023-03-20T06:38:16.821Z,15.25
2023-03-20T06:41:03.051Z,14.48
2023-03-20T06:43:49.663Z,18.00
2023-03-20T06:46:38.686Z,19.15
2023-03-20T06:49:25.444Z,18.48
2023-03-20T06:52:19.921Z,19.33
2023-03-20T06:55:16.328Z,19.73
2023-03-20T06:58:03.897Z,18.67
2023-03-20T07:00:52.283Z,19.48
2023-03-20T07:03:40.178Z,21.98
2023-03-20T07:06:28.122Z,20.50
2023-03-20T07:09:13.996Z,20.88
2023-03-20T07:12:00.146Z,21.05
2023-03-20T07:14:46.635Z,19.80
2023-03-20T07:17:37.501Z,18.40
2023-03-20T07:20:23.287Z,18.33
2023-03-20T07:23:09.391Z,18.23
2023-03-20T07:25:55.575Z,16.60
2023-03-20T07:28:41.500Z,15.38
2023-03-20T07:31:37.195Z,16.25
2023-03-20T07:34:33.163Z,15.60
2023-03-20T07:37:20.015Z,14.60
2023-03-20T07:40:16.977Z,19.33
2023-03-20T07:43:33.553Z,14.82
2023-03-20T07:46:49.265Z,32.30
2023-03-20T07:49:35.582Z,25.67
2023-03-20T07:52:21.664Z,25.40
2023-03-20T07:55:07.811Z,14.93
2023-03-20T07:57:53.921Z,14.68
2023-03-20T08:00:40.692Z,14.27
2023-03-20T08:03:26.814Z,16.42
2023-03-20T08:06:12.414Z,17.30
2023-03-20T08:08:58.735Z,38.30
2023-03-20T08:11:44.621Z,29.25
2023-03-20T08:14:30.684Z,36.22
2023-03-20T08:17:19.376Z,23.83
2023-03-20T08:20:07.303Z,27.75
2023-03-20T08:22:53.299Z,17.65
2023-03-20T08:25:39.318Z,18.55
2023-03-20T08:28:44.040Z,17.42
2023-03-20T08:31:31.684Z,19.30
2023-03-20T08:34:17.901Z,28.48
2023-03-20T08:38:10.214Z,29.38
2023-03-20T08:40:56.230Z,17.13
2023-03-20T08:43:46.314Z,24.38
2023-03-20T08:46:32.746Z,19.25
2023-03-20T08:49:18.554Z,16.65
2023-03-20T08:52:04.482Z,17.00
2023-03-20T08:54:50.294Z,22.58
2023-03-20T08:57:35.962Z,21.55
2023-03-20T09:00:22.577Z,27.35
2023-03-20T09:03:14.851Z,28.55
2023-03-20T09:06:01.128Z,18.40
2023-03-20T09:08:47.131Z,16.50
2023-03-20T09:11:36.122Z,19.92
2023-03-20T09:14:22.699Z,16.95
2023-03-20T09:17:08.434Z,14.45
2023-03-20T09:19:54.252Z,14.77
2023-03-20T09:22:41.449Z,15.82
2023-03-20T09:25:27.575Z,11.52
2023-03-20T09:28:14.053Z,10.95
2023-03-20T09:31:00.210Z,11.25
2023-03-20T09:33:46.524Z,11.23
2023-03-20T09:36:33.125Z,14.43
2023-03-20T09:39:21.415Z,12.20
2023-03-20T09:42:31.449Z,12.27
2023-03-20T09:45:20.239Z,12.07
2023-03-20T09:48:24.532Z,11.80
2023-03-20T09:54:25.226Z,10.25
2023-03-20T09:57:27.094Z,16.10
2023-03-20T10:00:19.525Z,13.82
2023-03-20T10:03:10.301Z,12.40
2023-03-20T10:06:09.703Z,14.00
2023-03-20T10:08:55.560Z,16.35
2023-03-20T10:12:08.428Z,12.70
2023-03-20T10:15:21.897Z,14.80
2023-03-20T10:18:26.000Z,14.63
2023-03-20T10:21:26.828Z,15.40
2023-03-20T10:24:29.993Z,14.38
2023-03-20T10:27:42.308Z,14.07
2023-03-20T10:30:56.333Z,12.23
2023-03-20T10:34:05.147Z,9.98
2023-03-20T10:37:00.487Z,9.63
2023-03-20T10:39:57.874Z,10.65
2023-03-20T10:42:45.886Z,10.60
2023-03-20T10:45:53.801Z,9.93
2023-03-20T10:49:04.184Z,10.38
2023-03-20T10:51:52.944Z,8.65
2023-03-20T10:54:45.741Z,8.68
2023-03-20T10:57:36.483Z,8.32
2023-03-20T11:00:25.043Z,8.70
2023-03-20T11:03:24.888Z,8.20
2023-03-20T11:06:24.267Z,7.97
2023-03-20T11:09:20.435Z,7.95
2023-03-20T11:12:18.389Z,8.23
2023-03-20T11:15:34.839Z,10.02
2023-03-20T11:18:20.832Z,15.10
2023-03-20T11:21:09.028Z,7.72
2023-03-20T11:23:55.202Z,10.05
2023-03-20T11:26:42.913Z,8.23
2023-03-20T11:29:35.284Z,7.78
2023-03-20T11:32:35.985Z,7.25
2023-03-20T11:35:27.876Z,8.48
2023-03-20T11:38:20.322Z,9.10
2023-03-20T11:41:22.255Z,8.00
2023-03-20T11:44:28.146Z,9.43
2023-03-20T11:47:19.519Z,9.07
2023-03-20T11:50:07.343Z,9.13
2023-03-20T11:52:54.159Z,7.88
2023-03-20T11:55:39.810Z,7.07
2023-03-20T11:58:25.643Z,7.22
2023-03-20T12:01:12.650Z,7.25
2023-03-20T12:03:58.089Z,7.00
2023-03-20T12:06:46.984Z,6.43
2023-03-20T12:09:49.772Z,6.40
2023-03-20T12:12:41.030Z,6.53
2023-03-20T12:15:39.002Z,6.50
2023-03-20T12:18:36.950Z,5.95
2023-03-20T12:21:37.683Z,5.53
2023-03-20T12:24:42.408Z,5.03
2023-03-20T12:27:36.093Z,5.22
2023-03-20T12:30:50.074Z,5.20
2023-03-20T12:33:47.806Z,5.30
2023-03-20T12:36:41.413Z,5.50
2023-03-20T12:39:34.427Z,5.90
2023-03-20T12:42:48.197Z,4.70
2023-03-20T12:46:25.266Z,5.20
2023-03-20T12:49:17.195Z,5.60
2023-03-20T12:52:32.845Z,16.50
2023-03-20T12:55:18.695Z,21.20
2023-03-20T12:58:15.564Z,8.85
2023-03-20T13:01:09.380Z,5.30
2023-03-20T13:04:10.000Z,4.72
2023-03-20T13:07:03.832Z,4.50
2023-03-20T13:10:02.139Z,5.40
2023-03-20T13:13:06.372Z,4.80
2023-03-20T13:15:56.652Z,4.72
2023-03-20T13:19:12.767Z,4.45
2023-03-20T13:22:21.914Z,5.15
2023-03-20T13:25:23.065Z,5.22
2023-03-20T13:28:44.271Z,5.82
2023-03-20T13:31:48.604Z,5.70
2023-03-20T13:35:23.538Z,4.60
2023-03-20T13:38:25.359Z,4.43
2023-03-20T13:41:11.267Z,5.25
2023-03-20T13:44:01.326Z,6.53
2023-03-20T13:46:51.176Z,6.43
2023-03-20T13:50:09.788Z,6.10
2023-03-20T13:53:20.002Z,6.50
2023-03-20T13:56:29.608Z,6.22
2023-03-20T13:59:37.511Z,5.78
2023-03-20T14:02:45.035Z,5.93
2023-03-20T14:05:36.468Z,5.00
2023-03-20T14:08:30.838Z,4.80
2023-03-20T14:11:24.316Z,4.25
2023-03-20T14:14:23.959Z,5.30
2023-03-20T14:17:19.169Z,4.38
2023-03-20T14:20:20.861Z,3.83
2023-03-20T14:23:08.084Z,3.20
2023-03-20T14:25:54.838Z,3.65
2023-03-20T14:29:00.102Z,4.35
2023-03-20T14:31:49.641Z,4.63
2023-03-20T14:34:49.289Z,3.97
2023-03-20T14:37:58.496Z,4.28
2023-03-20T14:41:11.932Z,5.20
2023-03-20T14:44:16.603Z,4.80
2023-03-20T14:47:11.131Z,4.07
2023-03-20T14:50:20.711Z,4.65
2023-03-20T14:53:21.196Z,4.50
2023-03-20T14:56:11.122Z,4.78
2023-03-20T14:59:00.264Z,5.35
2023-03-20T15:01:55.844Z,6.30
2023-03-20T15:04:42.795Z,10.55
2023-03-20T15:07:36.398Z,11.85
2023-03-20T15:13:08.528Z,7.13
2023-03-20T15:15:59.969Z,7.45
2023-03-20T15:18:52.872Z,8.32
2023-03-20T15:21:41.480Z,9.45
2023-03-20T15:24:29.687Z,9.07
2023-03-20T15:27:16.179Z,7.65
2023-03-20T15:30:02.633Z,7.50
2023-03-20T15:32:49.973Z,9.73
2023-03-20T15:35:36.714Z,9.65
2023-03-20T15:38:23.262Z,9.48
2023-03-20T15:41:09.064Z,11.93
2023-03-20T15:44:23.216Z,13.20
2023-03-20T15:50:12.848Z,26.70
2023-03-20T15:52:59.069Z,13.55
2023-03-20T15:55:50.839Z,13.90
2023-03-20T15:58:36.939Z,16.08
2023-03-20T16:01:25.222Z,15.93
2023-03-20T16:04:15.301Z,23.08
2023-03-20T16:07:01.706Z,17.08
2023-03-20T16:09:49.696Z,19.25
2023-03-20T16:12:35.689Z,20.45
2023-03-20T16:15:25.595Z,17.80
2023-03-20T16:18:15.072Z,20.73
2023-03-20T16:21:05.646Z,19.88
2023-03-20T16:23:54.168Z,19.67
2023-03-20T16:26:44.592Z,19.38
2023-03-20T16:29:30.971Z,25.85
2023-03-20T16:32:31.239Z,18.83
2023-03-20T16:35:20.447Z,14.65
2023-03-20T16:38:29.539Z,16.35
2023-03-20T16:41:15.715Z,33.58
2023-03-20T16:44:12.030Z,23.00
2023-03-20T16:47:18.344Z,22.35
2023-03-20T16:50:37.778Z,20.88
2023-03-20T16:53:24.939Z,27.30
2023-03-20T16:56:16.553Z,23.17
2023-03-20T16:59:10.351Z,18.60
2023-03-20T17:01:59.920Z,17.98
2023-03-20T17:04:48.046Z,19.35
2023-03-20T17:07:34.370Z,18.90
2023-03-20T17:10:21.829Z,18.60
2023-03-20T17:13:08.765Z,19.40
2023-03-20T17:15:55.008Z,20.08
2023-03-20T17:18:40.961Z,19.95
2023-03-20T17:21:27.457Z,19.70
2023-03-20T17:24:14.993Z,31.88
2023-03-20T17:27:01.135Z,32.10
2023-03-20T17:29:49.296Z,31.33
2023-03-20T17:32:35.462Z,21.70
2023-03-20T17:35:21.480Z,25.02
2023-03-20T17:38:12.352Z,24.35
2023-03-20T17:40:58.184Z,26.98
2023-03-20T17:43:45.222Z,26.88
2023-03-20T17:46:33.330Z,26.33
2023-03-20T17:49:26.973Z,27.67
2023-03-20T17:52:17.899Z,32.55
2023-03-20T17:55:03.844Z,35.30
2023-03-20T17:57:49.843Z,34.10
2023-03-20T18:00:36.454Z,35.28
2023-03-20T18:03:22.511Z,36.25
2023-03-20T18:06:17.736Z,22.50
2023-03-20T18:09:04.526Z,21.70
2023-03-20T18:11:50.684Z,20.05
2023-03-20T18:14:36.648Z,18.30
2023-03-20T18:17:22.326Z,16.23
2023-03-20T18:20:22.656Z,16.25
2023-03-20T18:23:09.161Z,16.20
2023-03-20T18:25:55.190Z,18.45
2023-03-20T18:28:40.905Z,17.77
2023-03-20T18:31:26.994Z,17.83
2023-03-20T18:34:12.590Z,18.23
2023-03-20T18:36:58.612Z,18.05
2023-03-20T18:39:44.810Z,22.52
2023-03-20T18:42:31.144Z,19.65
2023-03-20T18:45:17.305Z,19.65
2023-03-20T18:48:03.970Z,21.42
2023-03-20T18:50:51.116Z,29.48
2023-03-20T18:53:37.148Z,23.85
2023-03-20T18:56:25.484Z,19.92
2023-03-20T18:59:13.033Z,22.35
2023-03-20T19:01:58.818Z,21.65
2023-03-20T19:04:44.733Z,21.95
2023-03-20T19:07:30.580Z,20.52
2023-03-20T19:10:36.689Z,21.65
2023-03-20T19:13:22.832Z,21.88
2023-03-20T19:16:19.336Z,24.08
2023-03-20T19:19:07.746Z,29.33
2023-03-20T19:21:56.118Z,43.58
2023-03-20T19:24:42.705Z,36.90
2023-03-20T19:27:28.526Z,32.38
2023-03-20T19:30:25.513Z,32.40
2023-03-20T19:33:11.386Z,26.27
2023-03-20T19:36:04.843Z,24.52
2023-03-20T19:38:51.395Z,19.50
2023-03-20T19:41:37.987Z,15.57
2023-03-20T19:44:24.083Z,16.83
2023-03-20T19:47:10.404Z,16.15
2023-03-20T19:49:56.230Z,19.88
2023-03-20T19:52:41.856Z,19.60
2023-03-20T19:55:28.893Z,22.77
2023-03-20T19:58:15.005Z,19.80
2023-03-20T20:01:00.890Z,21.25
2023-03-20T20:03:47.058Z,18.13
2023-03-20T20:06:33.335Z,16.52
2023-03-20T20:09:19.451Z,17.13
2023-03-20T20:12:05.757Z,13.23
2023-03-20T20:14:52.127Z,12.45
2023-03-20T20:17:37.867Z,13.75
2023-03-20T20:20:25.236Z,12.75
2023-03-20T20:23:15.724Z,12.23
2023-03-20T20:26:04.954Z,11.50
2023-03-20T20:28:51.046Z,12.73
2023-03-20T20:31:36.966Z,11.43
2023-03-20T20:35:22.446Z,13.35
2023-03-20T20:40:35.748Z,12.40
2023-03-20T20:43:43.928Z,13.13
2023-03-20T20:46:28.212Z,16.58
2023-03-20T20:49:19.403Z,19.95
2023-03-20T20:52:06.466Z,23.10
2023-03-20T20:54:52.395Z,21.73
2023-03-20T20:57:38.232Z,16.10
2023-03-20T21:00:37.207Z,14.20
2023-03-20T21:03:29.062Z,16.10
2023-03-20T21:06:14.934Z,14.38
2023-03-20T21:09:01.036Z,16.00
2023-03-20T21:11:47.104Z,15.95
2023-03-20T21:14:32.952Z,15.43
2023-03-20T21:17:20.458Z,16.83
2023-03-20T21:20:13.213Z,16.70
2023-03-20T21:23:00.773Z,15.10
2023-03-20T21:25:47.980Z,13.63
2023-03-20T21:28:36.158Z,12.90
2023-03-20T21:31:28.071Z,11.05
2023-03-20T21:34:16.541Z,9.98
2023-03-20T21:37:56.146Z,10.52
2023-03-20T21:40:09.945Z,11.40
2023-03-20T21:42:57.886Z,11.85
2023-03-20T21:46:37.451Z,11.55
2023-03-20T21:55:52.321Z,14.00
2023-03-20T21:58:51.756Z,13.30
2023-03-20T22:14:34.028Z,11.07
2023-03-20T22:27:01.537Z,14.45
2023-03-20T22:30:00.636Z,11.75
2023-03-20T22:33:22.407Z,11.80
2023-03-20T22:39:11.693Z,10.35
2023-03-20T22:45:00.590Z,11.10
2023-03-20T22:47:47.656Z,10.73
2023-03-20T22:50:33.338Z,10.88
2023-03-20T22:53:19.250Z,12.10
2023-03-20T22:56:06.913Z,11.75
2023-03-20T22:58:53.848Z,11.48
2023-03-20T23:01:40.248Z,10.75
2023-03-20T23:04:27.448Z,10.57
2023-03-20T23:07:14.491Z,12.52
2023-03-20T23:10:00.910Z,10.93
2023-03-20T23:12:46.922Z,10.32
2023-03-20T23:15:32.689Z,11.85
2023-03-20T23:18:18.410Z,13.73
2023-03-20T23:21:05.035Z,10.15
2023-03-20T23:23:50.818Z,11.75
2023-03-20T23:26:36.640Z,12.70
2023-03-20T23:29:22.317Z,11.90
2023-03-20T23:32:08.086Z,13.07
2023-03-20T23:34:53.681Z,13.02
2023-03-20T23:37:39.425Z,15.43
2023-03-20T23:40:25.602Z,10.45
2023-03-20T23:43:11.378Z,8.75
2023-03-20T23:45:58.584Z,9.30
2023-03-20T23:48:45.727Z,8.80
2023-03-20T23:51:31.408Z,8.35
2023-03-20T23:54:17.176Z,10.38
2023-03-20T23:57:02.870Z,11.52
2023-03-20T23:59:48.702Z,11.20
